sensor_id;sensor_type;location;lat;lon;timestamp;pressure;altitude;pressure_sealevel;temperature
45701;BMP280;36277;32.852;-116.998;2022-10-23T00:01:21;99409.88;;;25.56
45701;BMP280;36277;32.852;-116.998;2022-10-23T00:03:51;99410.25;;;25.66
45701;BMP280;36277;32.852;-116.998;2022-10-23T00:06:17;99398.38;;;25.59
45701;BMP280;36277;32.852;-116.998;2022-10-23T00:08:45;99393.09;;;25.51
45701;BMP280;36277;32.852;-116.998;2022-10-23T00:11:15;99391.88;;;25.41
45701;BMP280;36277;32.852;-116.998;2022-10-23T00:13:42;99392.00;;;25.15
45701;BMP280;36277;32.852;-116.998;2022-10-23T00:16:09;99395.91;;;24.75
45701;BMP280;36277;32.852;-116.998;2022-10-23T00:18:37;99396.97;;;24.81
45701;BMP280;36277;32.852;-116.998;2022-10-23T00:21:04;99405.66;;;24.91
45701;BMP280;36277;32.852;-116.998;2022-10-23T00:23:30;99406.03;;;25.01
45701;BMP280;36277;32.852;-116.998;2022-10-23T00:25:56;99405.81;;;25.09
45701;BMP280;36277;32.852;-116.998;2022-10-23T00:28:24;99407.06;;;25.19
45701;BMP280;36277;32.852;-116.998;2022-10-23T00:30:50;99408.09;;;25.25
45701;BMP280;36277;32.852;-116.998;2022-10-23T00:33:17;99398.94;;;25.30
45701;BMP280;36277;32.852;-116.998;2022-10-23T00:35:43;99401.91;;;25.35
45701;BMP280;36277;32.852;-116.998;2022-10-23T00:38:10;99404.88;;;25.40
45701;BMP280;36277;32.852;-116.998;2022-10-23T00:40:37;99396.97;;;25.44
45701;BMP280;36277;32.852;-116.998;2022-10-23T00:43:05;99388.88;;;25.49
45701;BMP280;36277;32.852;-116.998;2022-10-23T00:45:32;99384.41;;;25.48
45701;BMP280;36277;32.852;-116.998;2022-10-23T00:48:00;99378.44;;;25.51
45701;BMP280;36277;32.852;-116.998;2022-10-23T00:50:29;99373.56;;;25.53
45701;BMP280;36277;32.852;-116.998;2022-10-23T00:52:58;99376.09;;;25.54
45701;BMP280;36277;32.852;-116.998;2022-10-23T00:55:26;99382.25;;;25.56
45701;BMP280;36277;32.852;-116.998;2022-10-23T00:57:53;99385.00;;;25.56
45701;BMP280;36277;32.852;-116.998;2022-10-23T01:00:28;99378.03;;;25.54
45701;BMP280;36277;32.852;-116.998;2022-10-23T01:02:56;99372.25;;;25.55
45701;BMP280;36277;32.852;-116.998;2022-10-23T01:05:29;99369.25;;;25.63
45701;BMP280;36277;32.852;-116.998;2022-10-23T01:08:06;99359.44;;;25.67
45701;BMP280;36277;32.852;-116.998;2022-10-23T01:10:48;99357.50;;;25.68
45701;BMP280;36277;32.852;-116.998;2022-10-23T01:13:26;99362.41;;;25.66
45701;BMP280;36277;32.852;-116.998;2022-10-23T01:19:01;99369.44;;;25.68
45701;BMP280;36277;32.852;-116.998;2022-10-23T01:24:25;99377.75;;;25.62
45701;BMP280;36277;32.852;-116.998;2022-10-23T01:27:17;99386.88;;;25.12
45701;BMP280;36277;32.852;-116.998;2022-10-23T01:30:10;99381.03;;;24.83
45701;BMP280;36277;32.852;-116.998;2022-10-23T01:37:44;99390.16;;;24.90
45701;BMP280;36277;32.852;-116.998;2022-10-23T01:40:31;99400.31;;;25.02
45701;BMP280;36277;32.852;-116.998;2022-10-23T01:43:45;99402.84;;;25.10
45701;BMP280;36277;32.852;-116.998;2022-10-23T01:46:00;99400.06;;;25.17
45701;BMP280;36277;32.852;-116.998;2022-10-23T01:48:29;99394.75;;;25.22
45701;BMP280;36277;32.852;-116.998;2022-10-23T01:50:59;99384.09;;;25.25
45701;BMP280;36277;32.852;-116.998;2022-10-23T01:53:29;99393.41;;;25.30
45701;BMP280;36277;32.852;-116.998;2022-10-23T01:55:59;99403.44;;;25.25
45701;BMP280;36277;32.852;-116.998;2022-10-23T01:58:29;99397.69;;;25.27
45701;BMP280;36277;32.852;-116.998;2022-10-23T02:01:00;99400.44;;;25.33
45701;BMP280;36277;32.852;-116.998;2022-10-23T02:03:30;99407.81;;;25.39
45701;BMP280;36277;32.852;-116.998;2022-10-23T02:05:58;99410.81;;;25.37
45701;BMP280;36277;32.852;-116.998;2022-10-23T02:08:24;99399.78;;;25.37
45701;BMP280;36277;32.852;-116.998;2022-10-23T02:11:10;99394.41;;;25.49
45701;BMP280;36277;32.852;-116.998;2022-10-23T02:14:01;99403.53;;;25.49
45701;BMP280;36277;32.852;-116.998;2022-10-23T02:16:40;99398.00;;;25.56
45701;BMP280;36277;32.852;-116.998;2022-10-23T02:24:34;99400.06;;;25.60
45701;BMP280;36277;32.852;-116.998;2022-10-23T02:27:06;99391.16;;;25.58
45701;BMP280;36277;32.852;-116.998;2022-10-23T02:29:51;99397.56;;;25.59
45701;BMP280;36277;32.852;-116.998;2022-10-23T02:32:21;99394.56;;;25.60
45701;BMP280;36277;32.852;-116.998;2022-10-23T02:34:49;99394.56;;;25.60
45701;BMP280;36277;32.852;-116.998;2022-10-23T02:37:15;99395.19;;;25.62
45701;BMP280;36277;32.852;-116.998;2022-10-23T02:39:42;99387.53;;;25.64
45701;BMP280;36277;32.852;-116.998;2022-10-23T02:45:35;99382.00;;;25.64
45701;BMP280;36277;32.852;-116.998;2022-10-23T02:48:40;99382.00;;;25.64
45701;BMP280;36277;32.852;-116.998;2022-10-23T02:51:18;99383.00;;;25.70
45701;BMP280;36277;32.852;-116.998;2022-10-23T02:54:05;99392.16;;;25.70
45701;BMP280;36277;32.852;-116.998;2022-10-23T02:59:26;99392.13;;;25.77
45701;BMP280;36277;32.852;-116.998;2022-10-23T03:02:05;99392.13;;;25.77
45701;BMP280;36277;32.852;-116.998;2022-10-23T03:04:36;99390.19;;;25.77
45701;BMP280;36277;32.852;-116.998;2022-10-23T03:07:02;99396.38;;;25.79
45701;BMP280;36277;32.852;-116.998;2022-10-23T03:09:30;99396.81;;;25.83
45701;BMP280;36277;32.852;-116.998;2022-10-23T03:11:56;99388.72;;;25.81
45701;BMP280;36277;32.852;-116.998;2022-10-23T03:14:22;99392.97;;;25.84
45701;BMP280;36277;32.852;-116.998;2022-10-23T03:16:49;99395.25;;;25.87
45701;BMP280;36277;32.852;-116.998;2022-10-23T03:19:15;99393.34;;;25.87
45701;BMP280;36277;32.852;-116.998;2022-10-23T03:21:41;99406.31;;;25.87
45701;BMP280;36277;32.852;-116.998;2022-10-23T03:24:07;99409.09;;;25.87
45701;BMP280;36277;32.852;-116.998;2022-10-23T03:26:33;99414.84;;;25.85
45701;BMP280;36277;32.852;-116.998;2022-10-23T03:28:59;99406.56;;;25.85
45701;BMP280;36277;32.852;-116.998;2022-10-23T03:31:26;99403.78;;;25.85
45701;BMP280;36277;32.852;-116.998;2022-10-23T03:33:52;99405.25;;;25.88
45701;BMP280;36277;32.852;-116.998;2022-10-23T03:36:18;99397.38;;;25.91
45701;BMP280;36277;32.852;-116.998;2022-10-23T03:38:44;99396.31;;;25.92
45701;BMP280;36277;32.852;-116.998;2022-10-23T03:41:10;99401.22;;;25.90
45701;BMP280;36277;32.852;-116.998;2022-10-23T03:43:37;99407.13;;;25.94
45701;BMP280;36277;32.852;-116.998;2022-10-23T03:46:03;99412.91;;;25.92
45701;BMP280;36277;32.852;-116.998;2022-10-23T03:48:34;99422.03;;;25.93
45701;BMP280;36277;32.852;-116.998;2022-10-23T03:51:04;99416.91;;;25.96
45701;BMP280;36277;32.852;-116.998;2022-10-23T03:53:30;99416.91;;;25.96
45701;BMP280;36277;32.852;-116.998;2022-10-23T03:55:56;99422.00;;;25.99
45701;BMP280;36277;32.852;-116.998;2022-10-23T03:58:22;99418.91;;;25.76
45701;BMP280;36277;32.852;-116.998;2022-10-23T04:00:49;99414.47;;;25.69
45701;BMP280;36277;32.852;-116.998;2022-10-23T04:03:15;99407.56;;;25.53
45701;BMP280;36277;32.852;-116.998;2022-10-23T04:05:41;99410.78;;;25.44
45701;BMP280;36277;32.852;-116.998;2022-10-23T04:08:08;99409.09;;;25.43
45701;BMP280;36277;32.852;-116.998;2022-10-23T04:10:34;99406.75;;;25.46
45701;BMP280;36277;32.852;-116.998;2022-10-23T04:13:00;99415.84;;;25.53
45701;BMP280;36277;32.852;-116.998;2022-10-23T04:15:27;99409.69;;;25.58
45701;BMP280;36277;32.852;-116.998;2022-10-23T04:17:53;99408.13;;;25.62
45701;BMP280;36277;32.852;-116.998;2022-10-23T04:20:19;99411.09;;;25.67
45701;BMP280;36277;32.852;-116.998;2022-10-23T04:22:45;99409.81;;;25.69
45701;BMP280;36277;32.852;-116.998;2022-10-23T04:25:12;99414.44;;;25.75
45701;BMP280;36277;32.852;-116.998;2022-10-23T04:27:38;99417.00;;;25.77
45701;BMP280;36277;32.852;-116.998;2022-10-23T04:30:05;99415.94;;;25.78
45701;BMP280;36277;32.852;-116.998;2022-10-23T04:32:31;99421.25;;;25.79
45701;BMP280;36277;32.852;-116.998;2022-10-23T04:34:57;99417.22;;;25.82
45701;BMP280;36277;32.852;-116.998;2022-10-23T04:37:23;99426.97;;;25.84
45701;BMP280;36277;32.852;-116.998;2022-10-23T04:39:50;99430.59;;;25.85
45701;BMP280;36277;32.852;-116.998;2022-10-23T04:42:16;99436.97;;;25.85
45701;BMP280;36277;32.852;-116.998;2022-10-23T04:44:42;99427.38;;;25.88
45701;BMP280;36277;32.852;-116.998;2022-10-23T04:47:09;99432.69;;;25.89
45701;BMP280;36277;32.852;-116.998;2022-10-23T04:49:35;99425.22;;;25.90
45701;BMP280;36277;32.852;-116.998;2022-10-23T04:52:01;99428.22;;;25.88
45701;BMP280;36277;32.852;-116.998;2022-10-23T04:54:27;99426.09;;;25.90
45701;BMP280;36277;32.852;-116.998;2022-10-23T04:56:53;99417.81;;;25.90
45701;BMP280;36277;32.852;-116.998;2022-10-23T04:59:20;99412.28;;;25.90
45701;BMP280;36277;32.852;-116.998;2022-10-23T05:01:46;99409.28;;;25.92
45701;BMP280;36277;32.852;-116.998;2022-10-23T05:04:12;99409.50;;;25.90
45701;BMP280;36277;32.852;-116.998;2022-10-23T05:06:38;99416.94;;;25.90
45701;BMP280;36277;32.852;-116.998;2022-10-23T05:09:04;99415.66;;;25.92
45701;BMP280;36277;32.852;-116.998;2022-10-23T05:11:31;99405.44;;;25.93
45701;BMP280;36277;32.852;-116.998;2022-10-23T05:13:57;99419.25;;;25.93
45701;BMP280;36277;32.852;-116.998;2022-10-23T05:16:35;99422.44;;;25.96
45701;BMP280;36277;32.852;-116.998;2022-10-23T05:19:04;99428.19;;;25.95
45701;BMP280;36277;32.852;-116.998;2022-10-23T05:21:33;99433.50;;;25.96
45701;BMP280;36277;32.852;-116.998;2022-10-23T05:24:01;99434.13;;;25.98
45701;BMP280;36277;32.852;-116.998;2022-10-23T05:26:28;99432.44;;;25.97
45701;BMP280;36277;32.852;-116.998;2022-10-23T05:28:55;99441.81;;;25.96
45701;BMP280;36277;32.852;-116.998;2022-10-23T05:31:23;99451.78;;;25.97
45701;BMP280;36277;32.852;-116.998;2022-10-23T05:33:51;99457.31;;;25.97
45701;BMP280;36277;32.852;-116.998;2022-10-23T05:36:21;99447.09;;;25.98
45701;BMP280;36277;32.852;-116.998;2022-10-23T05:38:48;99448.41;;;25.95
45701;BMP280;36277;32.852;-116.998;2022-10-23T05:41:14;99453.94;;;25.95
45701;BMP280;36277;32.852;-116.998;2022-10-23T05:43:41;99456.69;;;25.95
45701;BMP280;36277;32.852;-116.998;2022-10-23T05:46:07;99454.75;;;25.96
45701;BMP280;36277;32.852;-116.998;2022-10-23T05:48:34;99459.47;;;25.95
45701;BMP280;36277;32.852;-116.998;2022-10-23T05:51:05;99475.63;;;25.98
45701;BMP280;36277;32.852;-116.998;2022-10-23T05:53:32;99482.41;;;25.96
45701;BMP280;36277;32.852;-116.998;2022-10-23T05:56:08;99487.94;;;25.96
45701;BMP280;36277;32.852;-116.998;2022-10-23T05:58:34;99496.47;;;25.94
45701;BMP280;36277;32.852;-116.998;2022-10-23T06:01:08;99505.41;;;25.96
45701;BMP280;36277;32.852;-116.998;2022-10-23T06:03:36;99496.25;;;25.96
45701;BMP280;36277;32.852;-116.998;2022-10-23T06:06:03;99496.03;;;25.97
45701;BMP280;36277;32.852;-116.998;2022-10-23T06:08:30;99494.34;;;25.96
45701;BMP280;36277;32.852;-116.998;2022-10-23T06:10:57;99485.81;;;25.98
45701;BMP280;36277;32.852;-116.998;2022-10-23T06:13:23;99483.28;;;25.96
45701;BMP280;36277;32.852;-116.998;2022-10-23T06:15:49;99495.19;;;25.97
45701;BMP280;36277;32.852;-116.998;2022-10-23T06:18:15;99502.00;;;25.94
45701;BMP280;36277;32.852;-116.998;2022-10-23T06:20:42;99499.00;;;25.96
45701;BMP280;36277;32.852;-116.998;2022-10-23T06:23:08;99506.22;;;25.97
45701;BMP280;36277;32.852;-116.998;2022-10-23T06:25:35;99510.94;;;25.96
45701;BMP280;36277;32.852;-116.998;2022-10-23T06:28:01;99505.41;;;25.96
45701;BMP280;36277;32.852;-116.998;2022-10-23T06:30:27;99500.69;;;25.97
45701;BMP280;36277;32.852;-116.998;2022-10-23T06:32:53;99496.88;;;25.98
45701;BMP280;36277;32.852;-116.998;2022-10-23T06:35:20;99505.41;;;25.96
45701;BMP280;36277;32.852;-116.998;2022-10-23T06:37:46;99500.06;;;25.95
45701;BMP280;36277;32.852;-116.998;2022-10-23T06:40:12;99506.47;;;25.95
45701;BMP280;36277;32.852;-116.998;2022-10-23T06:42:39;99511.38;;;25.93
45701;BMP280;36277;32.852;-116.998;2022-10-23T06:45:05;99500.31;;;25.93
45701;BMP280;36277;32.852;-116.998;2022-10-23T06:47:31;99507.31;;;25.96
45701;BMP280;36277;32.852;-116.998;2022-10-23T06:49:58;99507.53;;;25.94
45701;BMP280;36277;32.852;-116.998;2022-10-23T06:52:24;99505.41;;;25.96
45701;BMP280;36277;32.852;-116.998;2022-10-23T06:54:50;99502.63;;;25.96
45701;BMP280;36277;32.852;-116.998;2022-10-23T06:57:16;99505.41;;;25.96
45701;BMP280;36277;32.852;-116.998;2022-10-23T06:59:42;99493.47;;;25.96
45701;BMP280;36277;32.852;-116.998;2022-10-23T07:02:09;99488.81;;;25.96
45701;BMP280;36277;32.852;-116.998;2022-10-23T07:04:35;99488.81;;;25.96
45701;BMP280;36277;32.852;-116.998;2022-10-23T07:07:01;99496.03;;;25.97
45701;BMP280;36277;32.852;-116.998;2022-10-23T07:09:28;99480.50;;;25.96
45701;BMP280;36277;32.852;-116.998;2022-10-23T07:11:54;99486.03;;;25.96
45701;BMP280;36277;32.852;-116.998;2022-10-23T07:14:20;99474.34;;;25.94
45701;BMP280;36277;32.852;-116.998;2022-10-23T07:16:46;99477.94;;;25.95
45701;BMP280;36277;32.852;-116.998;2022-10-23T07:19:13;99465.00;;;25.95
45701;BMP280;36277;32.852;-116.998;2022-10-23T07:21:39;99460.53;;;25.94
45701;BMP280;36277;32.852;-116.998;2022-10-23T07:24:05;99456.91;;;25.94
45701;BMP280;36277;32.852;-116.998;2022-10-23T07:26:32;99457.13;;;25.92
45701;BMP280;36277;32.852;-116.998;2022-10-23T07:28:58;99456.28;;;25.92
45701;BMP280;36277;32.852;-116.998;2022-10-23T07:31:25;99461.81;;;25.92
45701;BMP280;36277;32.852;-116.998;2022-10-23T07:33:51;99454.50;;;25.60
45701;BMP280;36277;32.852;-116.998;2022-10-23T07:36:18;99459.84;;;25.55
45701;BMP280;36277;32.852;-116.998;2022-10-23T07:38:44;99461.81;;;25.41
45701;BMP280;36277;32.852;-116.998;2022-10-23T07:41:11;99465.66;;;25.40
45701;BMP280;36277;32.852;-116.998;2022-10-23T07:43:38;99453.09;;;25.38
45701;BMP280;36277;32.852;-116.998;2022-10-23T07:46:04;99454.56;;;25.47
45701;BMP280;36277;32.852;-116.998;2022-10-23T07:48:32;99462.19;;;25.51
45701;BMP280;36277;32.852;-116.998;2022-10-23T07:51:00;99465.13;;;25.56
45701;BMP280;36277;32.852;-116.998;2022-10-23T07:53:28;99466.84;;;25.57
45701;BMP280;36277;32.852;-116.998;2022-10-23T07:55:59;99474.47;;;25.62
45701;BMP280;36277;32.852;-116.998;2022-10-23T07:58:28;99468.09;;;25.61
45701;BMP280;36277;32.852;-116.998;2022-10-23T08:00:59;99468.50;;;25.65
45701;BMP280;36277;32.852;-116.998;2022-10-23T08:03:31;99472.75;;;25.67
45701;BMP280;36277;32.852;-116.998;2022-10-23T08:05:58;99476.16;;;25.63
45701;BMP280;36277;32.852;-116.998;2022-10-23T08:08:25;99475.97;;;25.64
45701;BMP280;36277;32.852;-116.998;2022-10-23T08:10:53;99484.66;;;25.68
45701;BMP280;36277;32.852;-116.998;2022-10-23T08:13:20;99485.72;;;25.67
45701;BMP280;36277;32.852;-116.998;2022-10-23T08:15:48;99477.41;;;25.67
45701;BMP280;36277;32.852;-116.998;2022-10-23T08:18:15;99488.47;;;25.67
45701;BMP280;36277;32.852;-116.998;2022-10-23T08:20:44;99486.34;;;25.69
45701;BMP280;36277;32.852;-116.998;2022-10-23T08:23:11;99479.97;;;25.68
45701;BMP280;36277;32.852;-116.998;2022-10-23T08:25:39;99481.69;;;25.69
45701;BMP280;36277;32.852;-116.998;2022-10-23T08:28:07;99481.06;;;25.67
45701;BMP280;36277;32.852;-116.998;2022-10-23T08:30:33;99486.56;;;25.67
45701;BMP280;36277;32.852;-116.998;2022-10-23T08:33:05;99486.34;;;25.69
45701;BMP280;36277;32.852;-116.998;2022-10-23T08:35:35;99491.88;;;25.69
45701;BMP280;36277;32.852;-116.998;2022-10-23T08:38:03;99492.09;;;25.67
45701;BMP280;36277;32.852;-116.998;2022-10-23T08:40:29;99485.94;;;25.65
45701;BMP280;36277;32.852;-116.998;2022-10-23T08:43:29;99487.00;;;25.64
45701;BMP280;36277;32.852;-116.998;2022-10-23T08:46:07;99495.31;;;25.64
45701;BMP280;36277;32.852;-116.998;2022-10-23T08:48:41;99488.91;;;25.64
45701;BMP280;36277;32.852;-116.998;2022-10-23T08:56:38;99494.44;;;25.64
45701;BMP280;36277;32.852;-116.998;2022-10-23T08:59:26;99493.59;;;25.63
45701;BMP280;36277;32.852;-116.998;2022-10-23T09:02:12;99489.38;;;25.61
45701;BMP280;36277;32.852;-116.998;2022-10-23T09:04:45;99489.38;;;25.61
45701;BMP280;36277;32.852;-116.998;2022-10-23T09:12:37;99497.03;;;25.59
45701;BMP280;36277;32.852;-116.998;2022-10-23T09:17:58;99494.47;;;25.57
45701;BMP280;36277;32.852;-116.998;2022-10-23T09:20:34;99496.16;;;25.58
45701;BMP280;36277;32.852;-116.998;2022-10-23T09:23:06;99498.94;;;25.58
45701;BMP280;36277;32.852;-116.998;2022-10-23T09:25:39;99500.00;;;25.57
45701;BMP280;36277;32.852;-116.998;2022-10-23T09:28:10;99497.22;;;25.57
45701;BMP280;36277;32.852;-116.998;2022-10-23T09:30:41;99494.47;;;25.57
45701;BMP280;36277;32.852;-116.998;2022-10-23T09:33:25;99493.22;;;25.60
45701;BMP280;36277;32.852;-116.998;2022-10-23T09:35:55;99500.00;;;25.57
45701;BMP280;36277;32.852;-116.998;2022-10-23T09:41:18;99491.72;;;25.57
45701;BMP280;36277;32.852;-116.998;2022-10-23T09:43:42;99497.66;;;25.54
45701;BMP280;36277;32.852;-116.998;2022-10-23T09:46:09;99490.88;;;25.57
45701;BMP280;36277;32.852;-116.998;2022-10-23T09:48:37;99492.56;;;25.58
45701;BMP280;36277;32.852;-116.998;2022-10-23T09:51:15;99488.75;;;25.59
45701;BMP280;36277;32.852;-116.998;2022-10-23T09:53:56;99489.81;;;25.58
45701;BMP280;36277;32.852;-116.998;2022-10-23T09:56:30;99493.84;;;25.55
45701;BMP280;36277;32.852;-116.998;2022-10-23T10:01:30;99479.19;;;25.55
45701;BMP280;36277;32.852;-116.998;2022-10-23T10:03:57;99481.09;;;25.54
45701;BMP280;36277;32.852;-116.998;2022-10-23T10:06:32;99480.03;;;25.55
45701;BMP280;36277;32.852;-116.998;2022-10-23T10:09:02;99478.31;;;25.54
45701;BMP280;36277;32.852;-116.998;2022-10-23T10:11:50;99475.38;;;25.56
45701;BMP280;36277;32.852;-116.998;2022-10-23T10:23:09;99468.16;;;25.48
45701;BMP280;36277;32.852;-116.998;2022-10-23T10:25:41;99462.66;;;25.48
45701;BMP280;36277;32.852;-116.998;2022-10-23T10:33:56;99462.19;;;25.51
45701;BMP280;36277;32.852;-116.998;2022-10-23T10:39:18;99467.72;;;25.51
45701;BMP280;36277;32.852;-116.998;2022-10-23T10:53:47;99470.06;;;25.48
45701;BMP280;36277;32.852;-116.998;2022-10-23T10:56:18;99466.03;;;25.44
45701;BMP280;36277;32.852;-116.998;2022-10-23T10:58:55;99471.53;;;25.50
45701;BMP280;36277;32.852;-116.998;2022-10-23T11:01:48;99471.13;;;25.47
45701;BMP280;36277;32.852;-116.998;2022-10-23T11:06:50;99469.84;;;25.49
45701;BMP280;36277;32.852;-116.998;2022-10-23T11:09:27;99462.41;;;25.50
45701;BMP280;36277;32.852;-116.998;2022-10-23T11:11:55;99470.94;;;25.48
45701;BMP280;36277;32.852;-116.998;2022-10-23T11:14:32;99471.53;;;25.50
45701;BMP280;36277;32.852;-116.998;2022-10-23T11:19:59;99469.84;;;25.49
45701;BMP280;36277;32.852;-116.998;2022-10-23T11:22:44;99477.06;;;25.50
45701;BMP280;36277;32.852;-116.998;2022-10-23T11:25:49;99475.41;;;25.43
45701;BMP280;36277;32.852;-116.998;2022-10-23T11:36:58;99489.84;;;25.45
45701;BMP280;36277;32.852;-116.998;2022-10-23T11:39:35;99493.25;;;25.47
45701;BMP280;36277;32.852;-116.998;2022-10-23T11:44:44;99490.28;;;25.48
45701;BMP280;36277;32.852;-116.998;2022-10-23T11:47:37;99487.72;;;25.47
45701;BMP280;36277;32.852;-116.998;2022-10-23T11:50:12;99497.94;;;25.46
45701;BMP280;36277;32.852;-116.998;2022-10-23T11:56:02;99499.19;;;25.44
45701;BMP280;36277;32.852;-116.998;2022-10-23T11:58:51;99498.75;;;25.47
45701;BMP280;36277;32.852;-116.998;2022-10-23T12:01:38;99499.19;;;25.44
45701;BMP280;36277;32.852;-116.998;2022-10-23T12:12:25;99506.41;;;25.45
45701;BMP280;36277;32.852;-116.998;2022-10-23T12:14:53;99515.13;;;25.42
45701;BMP280;36277;32.852;-116.998;2022-10-23T12:19:51;99511.75;;;25.46
45701;BMP280;36277;32.852;-116.998;2022-10-23T12:22:18;99512.81;;;25.45
45701;BMP280;36277;32.852;-116.998;2022-10-23T12:28:27;99515.56;;;25.45
45701;BMP280;36277;32.852;-116.998;2022-10-23T12:33:51;99528.13;;;25.41
45701;BMP280;36277;32.852;-116.998;2022-10-23T12:36:56;99519.59;;;25.43
45701;BMP280;36277;32.852;-116.998;2022-10-23T12:39:40;99521.97;;;25.39
45701;BMP280;36277;32.852;-116.998;2022-10-23T12:42:23;99520.47;;;25.43
45701;BMP280;36277;32.852;-116.998;2022-10-23T12:45:04;99526.00;;;25.43
45701;BMP280;36277;32.852;-116.998;2022-10-23T12:47:31;99522.78;;;25.40
45701;BMP280;36277;32.852;-116.998;2022-10-23T12:49:57;99521.72;;;25.41
45701;BMP280;36277;32.852;-116.998;2022-10-23T12:52:23;99527.25;;;25.41
45701;BMP280;36277;32.852;-116.998;2022-10-23T12:54:50;99528.13;;;25.41
45701;BMP280;36277;32.852;-116.998;2022-10-23T12:57:28;99529.38;;;25.45
45701;BMP280;36277;32.852;-116.998;2022-10-23T13:00:07;99522.59;;;25.41
45701;BMP280;36277;32.852;-116.998;2022-10-23T13:02:35;99523.84;;;25.39
45701;BMP280;36277;32.852;-116.998;2022-10-23T13:05:05;99527.47;;;25.39
45701;BMP280;36277;32.852;-116.998;2022-10-23T13:07:36;99523.66;;;25.40
45701;BMP280;36277;32.852;-116.998;2022-10-23T13:10:04;99530.25;;;25.39
45701;BMP280;36277;32.852;-116.998;2022-10-23T13:12:33;99534.91;;;25.39
45701;BMP280;36277;32.852;-116.998;2022-10-23T13:17:42;99544.72;;;25.35
45701;BMP280;36277;32.852;-116.998;2022-10-23T13:20:23;99543.41;;;25.37
45701;BMP280;36277;32.852;-116.998;2022-10-23T13:23:17;99550.00;;;25.36
45701;BMP280;36277;32.852;-116.998;2022-10-23T13:25:55;99542.78;;;25.35
45701;BMP280;36277;32.852;-116.998;2022-10-23T13:28:25;99550.66;;;25.32
45701;BMP280;36277;32.852;-116.998;2022-10-23T13:33:40;99554.25;;;25.32
45701;BMP280;36277;32.852;-116.998;2022-10-23T13:38:41;99561.72;;;25.32
45701;BMP280;36277;32.852;-116.998;2022-10-23T13:41:16;99564.25;;;25.33
45701;BMP280;36277;32.852;-116.998;2022-10-23T13:43:45;99563.63;;;25.31
45701;BMP280;36277;32.852;-116.998;2022-10-23T13:46:16;99561.72;;;25.32
45701;BMP280;36277;32.852;-116.998;2022-10-23T13:48:43;99568.31;;;25.31
45701;BMP280;36277;32.852;-116.998;2022-10-23T13:51:21;99559.78;;;25.32
45701;BMP280;36277;32.852;-116.998;2022-10-23T13:53:49;99566.81;;;25.28
45701;BMP280;36277;32.852;-116.998;2022-10-23T13:56:18;99572.97;;;25.30
45701;BMP280;36277;32.852;-116.998;2022-10-23T13:58:45;99565.97;;;25.28
45701;BMP280;36277;32.852;-116.998;2022-10-23T14:03:44;99586.38;;;25.27
45701;BMP280;36277;32.852;-116.998;2022-10-23T14:06:12;99583.59;;;25.27
45701;BMP280;36277;32.852;-116.998;2022-10-23T14:08:38;99588.06;;;25.28
45701;BMP280;36277;32.852;-116.998;2022-10-23T14:11:04;99598.47;;;25.26
45701;BMP280;36277;32.852;-116.998;2022-10-23T14:13:31;99593.78;;;25.27
45701;BMP280;36277;32.852;-116.998;2022-10-23T14:15:57;99604.00;;;25.26
45701;BMP280;36277;32.852;-116.998;2022-10-23T14:18:23;99601.25;;;25.26
45701;BMP280;36277;32.852;-116.998;2022-10-23T14:20:49;99605.06;;;25.25
45701;BMP280;36277;32.852;-116.998;2022-10-23T14:23:16;99600.59;;;25.24
45701;BMP280;36277;32.852;-116.998;2022-10-23T14:25:42;99599.97;;;25.22
45701;BMP280;36277;32.852;-116.998;2022-10-23T14:28:08;99609.13;;;25.23
45701;BMP280;36277;32.852;-116.998;2022-10-23T14:30:35;99611.88;;;25.23
45701;BMP280;36277;32.852;-116.998;2022-10-23T14:33:02;99606.34;;;25.23
45701;BMP280;36277;32.852;-116.998;2022-10-23T14:35:29;99599.13;;;25.22
45701;BMP280;36277;32.852;-116.998;2022-10-23T14:37:55;99605.50;;;25.22
45701;BMP280;36277;32.852;-116.998;2022-10-23T14:40:23;99605.50;;;25.22
45701;BMP280;36277;32.852;-116.998;2022-10-23T14:42:50;99608.47;;;25.21
45701;BMP280;36277;32.852;-116.998;2022-10-23T14:45:16;99603.78;;;25.21
45701;BMP280;36277;32.852;-116.998;2022-10-23T14:47:42;99608.47;;;25.21
45701;BMP280;36277;32.852;-116.998;2022-10-23T14:50:10;99611.88;;;25.23
45701;BMP280;36277;32.852;-116.998;2022-10-23T14:52:37;99621.22;;;25.22
45701;BMP280;36277;32.852;-116.998;2022-10-23T14:55:03;99622.94;;;25.23
45701;BMP280;36277;32.852;-116.998;2022-10-23T14:57:30;99633.97;;;25.23
45701;BMP280;36277;32.852;-116.998;2022-10-23T14:59:56;99639.69;;;25.21
45701;BMP280;36277;32.852;-116.998;2022-10-23T15:02:22;99645.03;;;25.23
45701;BMP280;36277;32.852;-116.998;2022-10-23T15:04:48;99648.84;;;25.22
45701;BMP280;36277;32.852;-116.998;2022-10-23T15:07:14;99647.78;;;25.23
45701;BMP280;36277;32.852;-116.998;2022-10-23T15:09:41;99640.56;;;25.22
45701;BMP280;36277;32.852;-116.998;2022-10-23T15:12:07;99648.84;;;25.22
45701;BMP280;36277;32.852;-116.998;2022-10-23T15:14:33;99643.31;;;25.22
45701;BMP280;36277;32.852;-116.998;2022-10-23T15:17:00;99642.69;;;25.20
45701;BMP280;36277;32.852;-116.998;2022-10-23T15:19:26;99651.59;;;25.22
45701;BMP280;36277;32.852;-116.998;2022-10-23T15:21:52;99653.50;;;25.21
45701;BMP280;36277;32.852;-116.998;2022-10-23T15:24:18;99657.13;;;25.22
45701;BMP280;36277;32.852;-116.998;2022-10-23T15:26:47;99664.34;;;25.23
45701;BMP280;36277;32.852;-116.998;2022-10-23T15:29:17;99659.44;;;25.25
45701;BMP280;36277;32.852;-116.998;2022-10-23T15:31:51;99654.78;;;25.25
45701;BMP280;36277;32.852;-116.998;2022-10-23T15:34:21;99672.19;;;25.26
45701;BMP280;36277;32.852;-116.998;2022-10-23T15:36:48;99674.31;;;25.24
45701;BMP280;36277;32.852;-116.998;2022-10-23T15:39:18;99679.41;;;25.27
45701;BMP280;36277;32.852;-116.998;2022-10-23T15:41:45;99684.09;;;25.26
45701;BMP280;36277;32.852;-116.998;2022-10-23T15:44:15;99685.81;;;25.27
45701;BMP280;36277;32.852;-116.998;2022-10-23T15:46:42;99679.63;;;25.25